createdAt,value
2019-03-23T00:00:33.205Z,9.90
2019-03-23T00:03:21.217Z,9.90
2019-03-23T00:06:09.124Z,9.90
2019-03-23T00:08:57.083Z,9.90
2019-03-23T00:11:45.031Z,10.00
2019-03-23T00:14:32.961Z,9.90
2019-03-23T00:17:20.867Z,9.90
2019-03-23T00:20:08.873Z,9.90
2019-03-23T00:22:56.811Z,9.90
2019-03-23T00:25:44.744Z,9.90
2019-03-23T00:28:32.665Z,9.90
2019-03-23T00:31:20.605Z,9.80
2019-03-23T00:34:08.537Z,9.80
2019-03-23T00:36:49.346Z,9.80
2019-03-23T00:39:30.618Z,9.80
2019-03-23T00:42:11.646Z,9.80
2019-03-23T00:44:52.733Z,9.80
2019-03-23T00:47:33.821Z,9.80
2019-03-23T00:50:15.069Z,9.70
2019-03-23T00:52:56.169Z,9.70
2019-03-23T00:55:36.598Z,9.60
2019-03-23T00:58:16.965Z,9.60
2019-03-23T01:00:58.241Z,9.60
2019-03-23T01:03:39.005Z,9.60
2019-03-23T01:06:19.714Z,9.60
2019-03-23T01:09:00.865Z,9.60
2019-03-23T01:11:41.634Z,9.60
2019-03-23T01:14:22.517Z,9.60
2019-03-23T01:17:03.105Z,9.60
2019-03-23T01:19:44.138Z,9.60
2019-03-23T01:22:24.509Z,9.60
2019-03-23T01:25:05.408Z,9.70
2019-03-23T01:27:45.914Z,9.70
2019-03-23T01:30:15.038Z,9.60
2019-03-23T01:32:43.640Z,9.60
2019-03-23T01:35:12.941Z,9.60
2019-03-23T01:37:41.541Z,9.60
2019-03-23T01:40:10.590Z,9.60
2019-03-23T01:42:39.196Z,9.60
2019-03-23T01:45:14.552Z,9.50
2019-03-23T01:48:02.497Z,9.50
2019-03-23T01:50:50.410Z,9.50
2019-03-23T01:53:38.360Z,9.40
2019-03-23T01:59:33.166Z,9.20
2019-03-23T02:02:21.073Z,9.20
2019-03-23T02:05:09.579Z,9.00
2019-03-23T02:07:57.510Z,8.90
2019-03-23T02:10:45.449Z,8.80
2019-03-23T02:13:33.406Z,8.60
2019-03-23T02:16:21.314Z,8.50
2019-03-23T02:22:02.585Z,8.40
2019-03-23T02:24:50.493Z,8.30
2019-03-23T02:27:19.093Z,8.30
2019-03-23T02:29:47.661Z,8.20
2019-03-23T02:32:16.262Z,8.20
2019-03-23T02:34:44.873Z,8.10
2019-03-23T02:37:26.923Z,8.10
2019-03-23T02:39:43.657Z,8.10
2019-03-23T02:42:12.249Z,8.10
2019-03-23T02:44:40.847Z,8.10
2019-03-23T02:47:09.436Z,8.00
2019-03-23T02:49:57.348Z,8.00
2019-03-23T02:52:45.289Z,8.00
2019-03-23T02:55:33.203Z,8.00
2019-03-23T02:58:21.139Z,8.00
2019-03-23T03:04:15.943Z,8.00
2019-03-23T03:10:30.499Z,8.10
2019-03-23T03:13:18.443Z,8.00
2019-03-23T03:16:06.350Z,8.00
2019-03-23T03:18:34.936Z,8.00
2019-03-23T03:21:03.501Z,8.00
2019-03-23T03:23:32.151Z,8.10
2019-03-23T03:26:01.216Z,8.10
2019-03-23T03:28:49.162Z,8.00
2019-03-23T03:31:37.060Z,8.00
2019-03-23T03:34:25.001Z,8.00
2019-03-23T03:37:12.901Z,7.90
2019-03-23T03:40:00.840Z,7.80
2019-03-23T03:42:48.778Z,7.80
2019-03-23T03:45:36.682Z,7.70
2019-03-23T03:48:24.635Z,7.70
2019-03-23T03:51:12.543Z,7.60
2019-03-23T03:56:54.363Z,7.70
2019-03-23T03:59:42.300Z,7.60
2019-03-23T04:02:30.205Z,7.60
2019-03-23T04:05:18.157Z,7.60
2019-03-23T04:08:11.709Z,7.60
2019-03-23T04:10:55.649Z,7.60
2019-03-23T04:13:43.586Z,7.60
2019-03-23T04:16:31.528Z,7.60
2019-03-23T04:22:12.550Z,7.70
2019-03-23T04:25:00.657Z,7.70
2019-03-23T04:27:50.045Z,7.70
2019-03-23T04:30:37.949Z,7.70
2019-03-23T04:33:25.884Z,7.70
2019-03-23T04:36:06.630Z,7.70
2019-03-23T04:38:47.038Z,7.70
2019-03-23T04:41:27.731Z,7.70
2019-03-23T04:44:08.881Z,7.70
2019-03-23T04:46:49.225Z,7.70
2019-03-23T04:49:30.109Z,7.60
2019-03-23T04:52:11.113Z,7.60
2019-03-23T04:54:51.749Z,7.60
2019-03-23T04:57:32.636Z,7.60
2019-03-23T05:00:13.339Z,7.60
2019-03-23T05:02:53.729Z,7.60
2019-03-23T05:05:34.698Z,7.70
2019-03-23T05:08:15.293Z,7.70
2019-03-23T05:10:56.333Z,7.70
2019-03-23T05:13:37.638Z,7.70
2019-03-23T05:16:18.233Z,7.70
2019-03-23T05:18:58.933Z,7.70
2019-03-23T05:21:39.565Z,7.70
2019-03-23T05:24:20.222Z,7.70
2019-03-23T05:27:01.390Z,7.70
2019-03-23T05:29:41.882Z,7.70
2019-03-23T05:32:22.241Z,7.70
2019-03-23T05:35:02.718Z,7.80
2019-03-23T05:37:43.334Z,7.70
2019-03-23T05:40:24.519Z,7.70
2019-03-23T05:43:05.552Z,7.70
2019-03-23T05:45:46.285Z,7.80
2019-03-23T05:48:27.482Z,7.80
2019-03-23T05:51:08.046Z,7.80
2019-03-23T05:53:49.402Z,7.70
2019-03-23T05:56:30.345Z,7.80
2019-03-23T05:59:10.757Z,7.80
2019-03-23T06:01:51.400Z,7.80
2019-03-23T06:04:32.721Z,7.80
2019-03-23T06:07:14.013Z,7.80
2019-03-23T06:09:55.369Z,7.80
2019-03-23T06:12:36.401Z,7.80
2019-03-23T06:15:17.298Z,7.80
2019-03-23T06:17:58.397Z,7.90
2019-03-23T06:20:39.165Z,7.90
2019-03-23T06:23:20.311Z,7.90
2019-03-23T06:26:00.857Z,8.00
2019-03-23T06:28:41.853Z,8.00
2019-03-23T06:31:22.692Z,8.00
2019-03-23T06:34:03.470Z,8.00
2019-03-23T06:36:44.721Z,8.10
2019-03-23T06:39:25.586Z,8.10
2019-03-23T06:42:06.756Z,8.20
2019-03-23T06:44:47.317Z,8.30
2019-03-23T06:47:28.088Z,8.30
2019-03-23T06:50:08.481Z,8.40
2019-03-23T06:52:37.194Z,8.40
2019-03-23T06:55:08.289Z,8.40
2019-03-23T06:57:36.934Z,8.40
2019-03-23T07:00:11.239Z,8.40
2019-03-23T07:02:39.964Z,8.50
2019-03-23T07:05:09.710Z,8.50
2019-03-23T07:07:38.339Z,8.60
2019-03-23T07:10:40.412Z,8.60
2019-03-23T07:13:15.851Z,8.50
2019-03-23T07:16:03.980Z,8.50
2019-03-23T07:18:51.923Z,8.50
2019-03-23T07:21:39.963Z,8.60
2019-03-23T07:24:27.852Z,8.50
2019-03-23T07:27:15.789Z,8.60
2019-03-23T07:30:24.464Z,8.80
2019-03-23T07:33:12.407Z,8.70
2019-03-23T07:35:53.267Z,8.70
2019-03-23T07:38:33.806Z,8.80
2019-03-23T07:41:14.162Z,8.90
2019-03-23T07:43:55.063Z,8.90
2019-03-23T07:46:36.338Z,8.90
2019-03-23T07:49:17.666Z,8.90
2019-03-23T07:51:58.375Z,9.00
2019-03-23T07:54:38.902Z,9.20
2019-03-23T07:57:20.146Z,9.30
2019-03-23T08:00:01.032Z,9.40
2019-03-23T08:02:42.345Z,9.40
2019-03-23T08:05:23.385Z,9.30
2019-03-23T08:08:03.804Z,9.30
2019-03-23T08:10:45.058Z,9.40
2019-03-23T08:13:25.440Z,9.30
2019-03-23T08:16:06.820Z,9.40
2019-03-23T08:18:47.946Z,9.30
2019-03-23T08:21:28.538Z,9.40
2019-03-23T08:24:09.906Z,9.40
2019-03-23T08:26:50.949Z,9.20
2019-03-23T08:29:32.109Z,9.00
2019-03-23T08:32:12.731Z,8.90
2019-03-23T08:34:53.912Z,8.80
2019-03-23T08:37:35.014Z,8.80
2019-03-23T08:40:15.832Z,8.80
2019-03-23T08:42:57.030Z,8.70
2019-03-23T08:45:37.945Z,8.70
2019-03-23T08:48:19.202Z,8.70
2019-03-23T08:50:59.961Z,8.70
2019-03-23T08:53:40.866Z,8.70
2019-03-23T08:56:21.311Z,8.90
2019-03-23T08:59:02.152Z,9.10
2019-03-23T09:01:42.834Z,9.30
2019-03-23T09:04:23.331Z,9.40
2019-03-23T09:07:03.725Z,9.50
2019-03-23T09:09:44.210Z,9.40
2019-03-23T09:12:25.017Z,9.40
2019-03-23T09:15:05.789Z,9.20
2019-03-23T09:17:46.577Z,9.10
2019-03-23T09:20:29.503Z,9.20
2019-03-23T09:23:10.452Z,9.30
2019-03-23T09:25:51.840Z,9.30
2019-03-23T09:28:32.191Z,9.40
2019-03-23T09:31:13.221Z,9.50
2019-03-23T09:33:53.496Z,9.50
2019-03-23T09:36:34.921Z,9.50
2019-03-23T09:39:15.488Z,9.50
2019-03-23T09:41:55.891Z,9.60
2019-03-23T09:44:36.261Z,9.60
2019-03-23T09:47:16.683Z,9.50
2019-03-23T09:49:57.637Z,9.50
2019-03-23T09:52:38.050Z,9.60
2019-03-23T09:55:19.370Z,9.70
2019-03-23T09:58:00.156Z,9.80
2019-03-23T10:00:41.003Z,9.90
2019-03-23T10:03:22.460Z,10.00
2019-03-23T10:06:03.261Z,10.10
2019-03-23T10:08:31.830Z,10.20
2019-03-23T10:11:00.441Z,10.40
2019-03-23T10:13:29.020Z,10.40
2019-03-23T10:15:57.621Z,10.40
2019-03-23T10:18:26.331Z,10.40
2019-03-23T10:20:54.941Z,10.50
2019-03-23T10:23:23.518Z,10.50
2019-03-23T10:25:52.134Z,10.70
2019-03-23T10:28:20.709Z,10.70
2019-03-23T10:30:49.280Z,10.80
2019-03-23T10:33:37.218Z,10.90
2019-03-23T10:36:25.166Z,10.90
2019-03-23T10:39:13.081Z,10.80
2019-03-23T10:41:53.565Z,10.70
2019-03-23T10:44:33.953Z,10.60
2019-03-23T10:47:14.765Z,10.60
2019-03-23T10:49:55.923Z,10.60
2019-03-23T10:52:36.647Z,10.60
2019-03-23T10:55:17.729Z,10.60
2019-03-23T10:57:58.587Z,10.70
2019-03-23T11:00:39.219Z,10.70
2019-03-23T11:03:20.330Z,10.80
2019-03-23T11:06:01.212Z,10.80
2019-03-23T11:08:41.874Z,10.80
2019-03-23T11:11:22.839Z,10.80
2019-03-23T11:14:04.088Z,10.80
2019-03-23T11:16:45.267Z,10.90
2019-03-23T11:19:28.881Z,11.10
2019-03-23T11:22:10.757Z,11.20
2019-03-23T11:24:51.941Z,11.10
2019-03-23T11:27:33.147Z,11.10
2019-03-23T11:30:14.102Z,11.10
2019-03-23T11:32:55.498Z,11.10
2019-03-23T11:35:35.875Z,11.10
2019-03-23T11:38:16.306Z,11.10
2019-03-23T11:40:57.318Z,11.10
2019-03-23T11:43:38.473Z,11.10
2019-03-23T11:46:19.018Z,11.10
2019-03-23T11:48:59.577Z,11.20
2019-03-23T11:51:43.736Z,11.10
2019-03-23T11:54:24.731Z,11.50
2019-03-23T11:57:05.466Z,11.60
2019-03-23T11:59:46.529Z,11.70
2019-03-23T12:02:27.551Z,11.80
2019-03-23T12:05:08.650Z,11.80
2019-03-23T12:07:49.825Z,11.60
2019-03-23T12:10:30.247Z,11.50
2019-03-23T12:13:11.455Z,11.40
2019-03-23T12:15:52.951Z,11.30
2019-03-23T12:18:34.215Z,11.20
2019-03-23T12:21:14.954Z,11.10
2019-03-23T12:23:55.379Z,11.00
2019-03-23T12:26:36.747Z,10.90
2019-03-23T12:29:18.202Z,10.90
2019-03-23T12:31:59.205Z,10.80
2019-03-23T12:34:39.647Z,10.70
2019-03-23T12:37:20.254Z,10.60
2019-03-23T12:40:00.769Z,10.50
2019-03-23T12:42:41.514Z,10.50
2019-03-23T12:45:11.237Z,10.40
2019-03-23T12:47:40.485Z,10.40
2019-03-23T12:50:10.968Z,10.40
2019-03-23T12:56:06.001Z,10.60
2019-03-23T12:58:54.033Z,10.70
2019-03-23T13:01:42.065Z,10.90
2019-03-23T13:04:30.091Z,11.00
2019-03-23T13:07:18.182Z,11.20
2019-03-23T13:10:42.297Z,11.30
2019-03-23T13:13:16.452Z,11.30
2019-03-23T13:16:04.516Z,11.30
2019-03-23T13:18:52.498Z,11.60
2019-03-23T13:21:40.405Z,12.20
2019-03-23T13:24:28.413Z,12.10
2019-03-23T13:27:16.534Z,12.30
2019-03-23T13:30:25.204Z,12.50
2019-03-23T13:33:13.117Z,12.60
2019-03-23T13:35:53.492Z,12.80
2019-03-23T13:38:34.368Z,13.00
2019-03-23T13:41:15.336Z,13.00
2019-03-23T13:43:43.914Z,13.00
2019-03-23T13:46:12.561Z,13.10
2019-03-23T13:49:00.503Z,13.00
2019-03-23T13:52:01.787Z,12.80
2019-03-23T13:54:38.116Z,12.60
2019-03-23T13:57:26.045Z,12.50
2019-03-23T14:00:14.044Z,12.40
2019-03-23T14:03:25.240Z,12.40
2019-03-23T14:05:51.650Z,12.50
2019-03-23T14:08:39.749Z,12.50
2019-03-23T14:11:27.649Z,12.60
2019-03-23T14:13:56.290Z,12.60
2019-03-23T14:16:24.990Z,12.60
2019-03-23T14:18:53.776Z,12.60
2019-03-23T14:21:53.857Z,12.50
2019-03-23T14:24:32.117Z,12.50
2019-03-23T14:27:20.226Z,12.50
2019-03-23T14:30:08.487Z,12.50
2019-03-23T14:33:08.419Z,12.50
2019-03-23T14:35:57.724Z,12.60
2019-03-23T14:38:35.637Z,12.60
2019-03-23T14:41:23.688Z,12.60
2019-03-23T14:44:04.433Z,12.50
2019-03-23T14:46:45.625Z,12.40
2019-03-23T14:49:26.864Z,12.40
2019-03-23T14:52:07.781Z,12.30
2019-03-23T14:54:48.230Z,12.40
2019-03-23T14:57:29.485Z,12.40
2019-03-23T15:00:10.486Z,12.40
2019-03-23T15:02:51.735Z,12.40
2019-03-23T15:05:32.314Z,12.40
2019-03-23T15:08:13.621Z,12.30
2019-03-23T15:10:54.198Z,12.30
2019-03-23T15:16:17.613Z,12.20
2019-03-23T15:18:58.714Z,12.10
2019-03-23T15:21:40.161Z,12.00
2019-03-23T15:24:21.337Z,12.00
2019-03-23T15:30:14.699Z,12.20
2019-03-23T15:32:55.077Z,12.30
2019-03-23T15:35:35.869Z,12.60
2019-03-23T15:38:16.231Z,12.60
2019-03-23T15:40:57.421Z,12.50
2019-03-23T15:43:38.038Z,12.40
2019-03-23T15:46:18.801Z,12.30
2019-03-23T15:49:00.042Z,12.20
2019-03-23T15:51:40.749Z,12.00
2019-03-23T15:54:21.503Z,11.90
2019-03-23T15:56:50.196Z,11.80
2019-03-23T15:59:38.117Z,11.70
2019-03-23T16:02:26.143Z,11.60
2019-03-23T16:05:14.163Z,11.50
2019-03-23T16:08:02.073Z,11.40
2019-03-23T16:10:50.034Z,11.30
2019-03-23T16:13:38.013Z,11.20
2019-03-23T16:16:25.957Z,11.10
2019-03-23T16:19:13.890Z,11.00
2019-03-23T16:24:55.221Z,11.00
2019-03-23T16:27:55.047Z,10.90
2019-03-23T16:30:32.939Z,10.80
2019-03-23T16:33:20.854Z,10.80
2019-03-23T16:36:08.781Z,10.80
2019-03-23T16:38:56.727Z,10.70
2019-03-23T16:41:44.637Z,10.70
2019-03-23T16:44:32.594Z,10.60
2019-03-23T16:47:13.425Z,10.50
2019-03-23T16:49:54.402Z,10.40
2019-03-23T16:52:35.109Z,10.40
2019-03-23T16:55:16.218Z,10.30
2019-03-23T16:57:57.364Z,10.30
2019-03-23T17:00:38.271Z,10.20
2019-03-23T17:03:19.264Z,10.10
2019-03-23T17:06:00.294Z,10.10
2019-03-23T17:08:40.646Z,10.00
2019-03-23T17:11:21.440Z,10.00
2019-03-23T17:14:02.054Z,9.90
2019-03-23T17:16:42.682Z,9.80
2019-03-23T17:19:23.093Z,9.70
2019-03-23T17:21:51.685Z,9.70
2019-03-23T17:24:20.285Z,9.60
2019-03-23T17:26:48.897Z,9.50
2019-03-23T17:29:17.401Z,9.40
2019-03-23T17:31:47.113Z,9.40
2019-03-23T17:34:16.748Z,9.30
2019-03-23T17:36:46.325Z,9.20
2019-03-23T17:39:14.917Z,9.10
2019-03-23T17:42:02.889Z,9.10
2019-03-23T17:45:04.970Z,9.00
2019-03-23T17:47:33.537Z,9.00
2019-03-23T17:50:14.769Z,8.90
2019-03-23T17:52:55.467Z,8.90
2019-03-23T17:55:36.746Z,8.80
2019-03-23T17:58:17.566Z,8.70
2019-03-23T18:00:58.991Z,8.70
2019-03-23T18:03:39.533Z,8.70
2019-03-23T18:06:20.628Z,8.70
2019-03-23T18:09:02.454Z,8.70
2019-03-23T18:11:42.944Z,8.60
2019-03-23T18:14:23.626Z,8.60
2019-03-23T18:17:04.432Z,8.60
2019-03-23T18:19:44.968Z,8.50
2019-03-23T18:22:25.946Z,8.50
2019-03-23T18:25:06.818Z,8.80
2019-03-23T18:27:47.651Z,9.00
2019-03-23T18:30:28.262Z,9.10
2019-03-23T18:33:09.605Z,9.00
2019-03-23T18:35:50.437Z,8.90
2019-03-23T18:38:32.124Z,8.70
2019-03-23T18:41:12.696Z,8.60
2019-03-23T18:43:53.453Z,8.50
2019-03-23T18:46:24.410Z,8.50
2019-03-23T18:52:18.857Z,8.40
2019-03-23T18:58:28.137Z,8.20
2019-03-23T19:01:15.719Z,8.10
2019-03-23T19:03:53.598Z,8.10
2019-03-23T19:06:41.601Z,8.00
2019-03-23T19:09:29.554Z,7.90
2019-03-23T19:12:17.549Z,7.90
2019-03-23T19:15:26.274Z,7.90
2019-03-23T19:18:14.302Z,7.80
2019-03-23T19:21:17.768Z,7.80
2019-03-23T19:23:52.038Z,7.80
2019-03-23T19:26:40.094Z,7.80
2019-03-23T19:29:08.780Z,7.70
2019-03-23T19:31:37.357Z,7.60
2019-03-23T19:34:05.925Z,7.60
2019-03-23T19:36:34.484Z,7.60
2019-03-23T19:39:04.871Z,7.60
2019-03-23T19:41:52.801Z,7.60
2019-03-23T19:44:40.734Z,7.60
2019-03-23T19:47:28.640Z,7.60
2019-03-23T19:50:09.924Z,7.50
2019-03-23T19:52:50.729Z,7.50
2019-03-23T19:55:31.989Z,7.50
2019-03-23T19:58:13.298Z,7.50
2019-03-23T20:00:54.160Z,7.50
2019-03-23T20:03:35.405Z,7.40
2019-03-23T20:06:16.360Z,7.40
2019-03-23T20:08:57.010Z,7.40
2019-03-23T20:11:25.748Z,7.40
2019-03-23T20:13:58.787Z,7.40
2019-03-23T20:16:24.716Z,7.30
2019-03-23T20:18:53.494Z,7.30
2019-03-23T20:21:22.358Z,7.30
2019-03-23T20:23:51.371Z,7.20
2019-03-23T20:26:19.925Z,7.20
2019-03-23T20:28:48.531Z,7.20
2019-03-23T20:31:18.779Z,7.20
2019-03-23T20:33:47.798Z,7.20
2019-03-23T20:36:16.377Z,7.10
2019-03-23T20:38:44.964Z,7.20
2019-03-23T20:41:32.924Z,7.20
2019-03-23T20:44:20.869Z,7.40
2019-03-23T20:47:08.772Z,7.40
2019-03-23T20:49:49.583Z,7.30
2019-03-23T20:52:30.673Z,7.30
2019-03-23T20:55:11.741Z,7.20
2019-03-23T20:57:54.098Z,7.20
2019-03-23T21:00:34.502Z,7.10
2019-03-23T21:03:16.022Z,7.20
2019-03-23T21:05:57.033Z,7.20
2019-03-23T21:08:37.674Z,7.10
2019-03-23T21:11:18.967Z,7.10
2019-03-23T21:13:59.589Z,7.10
2019-03-23T21:16:39.990Z,6.70
2019-03-23T21:19:21.332Z,7.10
2019-03-23T21:21:49.927Z,7.10
2019-03-23T21:24:18.630Z,7.00
2019-03-23T21:26:47.212Z,7.10
2019-03-23T21:29:15.806Z,7.00
2019-03-23T21:31:44.368Z,7.10
2019-03-23T21:34:13.008Z,7.10
2019-03-23T21:36:41.597Z,7.10
2019-03-23T21:39:10.306Z,7.00
2019-03-23T21:41:58.238Z,7.00
2019-03-23T21:44:46.144Z,7.00
2019-03-23T21:47:34.201Z,7.00
2019-03-23T21:50:14.865Z,7.00
2019-03-23T21:52:55.584Z,7.00
2019-03-23T21:55:35.967Z,7.00
2019-03-23T21:58:16.657Z,7.00
2019-03-23T22:00:57.193Z,7.00
2019-03-23T22:03:38.262Z,7.10
2019-03-23T22:06:18.758Z,7.10
2019-03-23T22:08:59.127Z,7.10
2019-03-23T22:11:39.442Z,7.10
2019-03-23T22:14:20.289Z,7.10
2019-03-23T22:17:01.855Z,7.10
2019-03-23T22:19:42.958Z,7.10
2019-03-23T22:22:23.740Z,7.10
2019-03-23T22:25:04.649Z,7.10
2019-03-23T22:27:45.584Z,7.10
2019-03-23T22:30:26.742Z,7.10
2019-03-23T22:33:07.365Z,7.20
2019-03-23T22:35:47.675Z,7.20
2019-03-23T22:38:28.890Z,7.20
2019-03-23T22:41:09.592Z,7.10
2019-03-23T22:43:50.927Z,7.10
2019-03-23T22:46:19.786Z,7.10
2019-03-23T22:48:48.336Z,7.10
2019-03-23T22:51:16.934Z,7.10
2019-03-23T22:53:45.608Z,7.10
2019-03-23T22:56:14.209Z,7.10
2019-03-23T22:59:02.109Z,7.00
2019-03-23T23:01:50.113Z,7.00
2019-03-23T23:04:38.049Z,7.00
2019-03-23T23:07:25.958Z,7.10
2019-03-23T23:10:13.961Z,7.10
2019-03-23T23:12:42.548Z,7.10
2019-03-23T23:15:30.485Z,7.10
2019-03-23T23:18:18.385Z,7.10
2019-03-23T23:21:06.317Z,7.10
2019-03-23T23:23:54.238Z,7.10
2019-03-23T23:26:42.158Z,7.00
2019-03-23T23:29:30.052Z,7.00
2019-03-23T23:32:17.993Z,7.00
2019-03-23T23:35:25.216Z,7.00
2019-03-23T23:38:13.168Z,6.90
2019-03-23T23:44:07.960Z,6.90
2019-03-23T23:46:55.872Z,6.90
2019-03-23T23:49:24.458Z,6.90
2019-03-23T23:51:53.017Z,6.90
2019-03-23T23:54:40.962Z,6.80
2019-03-23T23:57:28.878Z,6.90
